sensor_id;sensor_type;location;lat;lon;timestamp;temperature;humidity
36752;DHT22;22718;49.494;7.036;2023-05-20T00:01:11;13.40;99.90
36752;DHT22;22718;49.494;7.036;2023-05-20T00:03:47;13.40;99.90
36752;DHT22;22718;49.494;7.036;2023-05-20T00:06:12;13.40;99.90
36752;DHT22;22718;49.494;7.036;2023-05-20T00:08:38;13.40;99.90
36752;DHT22;22718;49.494;7.036;2023-05-20T00:11:05;13.40;99.90
36752;DHT22;22718;49.494;7.036;2023-05-20T00:13:31;13.40;99.90
36752;DHT22;22718;49.494;7.036;2023-05-20T00:15:56;13.40;99.90
36752;DHT22;22718;49.494;7.036;2023-05-20T00:18:22;13.40;99.90
36752;DHT22;22718;49.494;7.036;2023-05-20T00:20:47;13.30;99.90
36752;DHT22;22718;49.494;7.036;2023-05-20T00:23:13;13.40;99.90
36752;DHT22;22718;49.494;7.036;2023-05-20T00:25:39;13.40;99.90
36752;DHT22;22718;49.494;7.036;2023-05-20T00:28:05;13.40;99.90
36752;DHT22;22718;49.494;7.036;2023-05-20T00:30:31;13.40;99.90
36752;DHT22;22718;49.494;7.036;2023-05-20T00:32:56;13.40;99.90
36752;DHT22;22718;49.494;7.036;2023-05-20T00:35:22;13.30;99.90
36752;DHT22;22718;49.494;7.036;2023-05-20T00:37:47;13.30;99.90
36752;DHT22;22718;49.494;7.036;2023-05-20T00:40:14;13.30;99.90
36752;DHT22;22718;49.494;7.036;2023-05-20T00:42:40;13.40;99.90
36752;DHT22;22718;49.494;7.036;2023-05-20T00:45:06;13.30;99.90
36752;DHT22;22718;49.494;7.036;2023-05-20T00:47:32;13.30;99.90
36752;DHT22;22718;49.494;7.036;2023-05-20T00:49:58;13.30;99.90
36752;DHT22;22718;49.494;7.036;2023-05-20T00:52:24;13.30;99.90
36752;DHT22;22718;49.494;7.036;2023-05-20T00:54:50;13.30;99.90
36752;DHT22;22718;49.494;7.036;2023-05-20T00:57:18;13.30;99.90
36752;DHT22;22718;49.494;7.036;2023-05-20T00:59:44;13.30;99.90
36752;DHT22;22718;49.494;7.036;2023-05-20T01:02:09;13.30;99.90
36752;DHT22;22718;49.494;7.036;2023-05-20T01:04:35;13.30;99.90
36752;DHT22;22718;49.494;7.036;2023-05-20T01:07:01;13.20;99.90
36752;DHT22;22718;49.494;7.036;2023-05-20T01:09:29;13.30;99.90
36752;DHT22;22718;49.494;7.036;2023-05-20T01:11:57;13.20;99.90
36752;DHT22;22718;49.494;7.036;2023-05-20T01:14:27;13.20;99.90
36752;DHT22;22718;49.494;7.036;2023-05-20T01:17:00;13.20;99.90
36752;DHT22;22718;49.494;7.036;2023-05-20T01:19:30;17.20;99.90
36752;DHT22;22718;49.494;7.036;2023-05-20T01:22:00;13.20;99.90
36752;DHT22;22718;49.494;7.036;2023-05-20T01:24:27;13.20;99.90
36752;DHT22;22718;49.494;7.036;2023-05-20T01:26:52;13.20;99.90
36752;DHT22;22718;49.494;7.036;2023-05-20T01:29:18;13.20;99.90
36752;DHT22;22718;49.494;7.036;2023-05-20T01:31:44;13.20;99.90
36752;DHT22;22718;49.494;7.036;2023-05-20T01:34:11;13.20;99.90
36752;DHT22;22718;49.494;7.036;2023-05-20T01:36:36;13.20;99.90
36752;DHT22;22718;49.494;7.036;2023-05-20T01:39:03;13.20;99.90
36752;DHT22;22718;49.494;7.036;2023-05-20T01:41:30;13.20;99.90
36752;DHT22;22718;49.494;7.036;2023-05-20T01:43:59;13.20;99.90
36752;DHT22;22718;49.494;7.036;2023-05-20T01:46:31;13.20;99.90
36752;DHT22;22718;49.494;7.036;2023-05-20T01:48:56;13.00;99.90
36752;DHT22;22718;49.494;7.036;2023-05-20T01:51:22;13.10;99.90
36752;DHT22;22718;49.494;7.036;2023-05-20T01:53:47;13.10;99.90
36752;DHT22;22718;49.494;7.036;2023-05-20T01:56:13;13.10;99.90
36752;DHT22;22718;49.494;7.036;2023-05-20T01:58:38;13.10;99.90
36752;DHT22;22718;49.494;7.036;2023-05-20T02:01:04;13.10;99.90
36752;DHT22;22718;49.494;7.036;2023-05-20T02:03:29;13.10;99.90
36752;DHT22;22718;49.494;7.036;2023-05-20T02:05:55;13.10;99.90
36752;DHT22;22718;49.494;7.036;2023-05-20T02:08:20;13.10;99.90
36752;DHT22;22718;49.494;7.036;2023-05-20T02:10:47;13.10;99.90
36752;DHT22;22718;49.494;7.036;2023-05-20T02:13:12;13.00;99.90
36752;DHT22;22718;49.494;7.036;2023-05-20T02:15:40;13.00;99.90
36752;DHT22;22718;49.494;7.036;2023-05-20T02:18:05;13.00;99.90
36752;DHT22;22718;49.494;7.036;2023-05-20T02:20:35;13.00;99.90
36752;DHT22;22718;49.494;7.036;2023-05-20T02:23:01;13.00;99.90
36752;DHT22;22718;49.494;7.036;2023-05-20T02:25:30;13.00;99.90
36752;DHT22;22718;49.494;7.036;2023-05-20T02:27:55;12.90;99.90
36752;DHT22;22718;49.494;7.036;2023-05-20T02:30:21;12.90;99.90
36752;DHT22;22718;49.494;7.036;2023-05-20T02:32:46;12.90;99.90
36752;DHT22;22718;49.494;7.036;2023-05-20T02:35:12;12.90;99.90
36752;DHT22;22718;49.494;7.036;2023-05-20T02:37:37;12.80;99.90
36752;DHT22;22718;49.494;7.036;2023-05-20T02:40:03;12.80;99.90
36752;DHT22;22718;49.494;7.036;2023-05-20T02:42:29;12.80;99.90
36752;DHT22;22718;49.494;7.036;2023-05-20T02:44:55;12.80;99.90
36752;DHT22;22718;49.494;7.036;2023-05-20T02:47:22;12.80;99.90
36752;DHT22;22718;49.494;7.036;2023-05-20T02:49:48;12.80;99.90
36752;DHT22;22718;49.494;7.036;2023-05-20T02:52:13;12.80;99.90
36752;DHT22;22718;49.494;7.036;2023-05-20T02:54:40;12.80;99.90
36752;DHT22;22718;49.494;7.036;2023-05-20T02:57:06;12.70;99.90
36752;DHT22;22718;49.494;7.036;2023-05-20T02:59:31;12.70;99.90
36752;DHT22;22718;49.494;7.036;2023-05-20T03:01:57;12.70;99.90
36752;DHT22;22718;49.494;7.036;2023-05-20T03:04:22;12.70;99.90
36752;DHT22;22718;49.494;7.036;2023-05-20T03:06:50;12.60;99.90
36752;DHT22;22718;49.494;7.036;2023-05-20T03:09:16;12.60;99.90
36752;DHT22;22718;49.494;7.036;2023-05-20T03:11:43;12.60;99.90
36752;DHT22;22718;49.494;7.036;2023-05-20T03:14:09;12.50;99.90
36752;DHT22;22718;49.494;7.036;2023-05-20T03:16:35;12.40;99.90
36752;DHT22;22718;49.494;7.036;2023-05-20T03:19:01;12.30;99.90
36752;DHT22;22718;49.494;7.036;2023-05-20T03:21:26;12.30;99.90
36752;DHT22;22718;49.494;7.036;2023-05-20T03:23:52;12.20;99.90
36752;DHT22;22718;49.494;7.036;2023-05-20T03:26:17;12.10;99.90
36752;DHT22;22718;49.494;7.036;2023-05-20T03:28:43;12.00;99.90
36752;DHT22;22718;49.494;7.036;2023-05-20T03:31:09;11.90;99.90
36752;DHT22;22718;49.494;7.036;2023-05-20T03:33:34;11.90;99.90
36752;DHT22;22718;49.494;7.036;2023-05-20T03:36:00;11.90;99.90
36752;DHT22;22718;49.494;7.036;2023-05-20T03:38:26;11.80;99.90
36752;DHT22;22718;49.494;7.036;2023-05-20T03:40:51;11.80;99.90
36752;DHT22;22718;49.494;7.036;2023-05-20T03:43:17;11.70;99.90
36752;DHT22;22718;49.494;7.036;2023-05-20T03:45:42;11.80;99.90
36752;DHT22;22718;49.494;7.036;2023-05-20T03:48:08;11.70;99.90
36752;DHT22;22718;49.494;7.036;2023-05-20T03:50:33;11.70;99.90
36752;DHT22;22718;49.494;7.036;2023-05-20T03:52:59;11.60;99.90
36752;DHT22;22718;49.494;7.036;2023-05-20T03:55:24;11.60;99.90
36752;DHT22;22718;49.494;7.036;2023-05-20T03:57:50;11.70;99.90
36752;DHT22;22718;49.494;7.036;2023-05-20T04:00:15;11.60;99.90
36752;DHT22;22718;49.494;7.036;2023-05-20T04:02:42;11.60;99.90
36752;DHT22;22718;49.494;7.036;2023-05-20T04:05:10;11.60;99.90
36752;DHT22;22718;49.494;7.036;2023-05-20T04:07:35;11.60;99.90
36752;DHT22;22718;49.494;7.036;2023-05-20T04:10:02;11.60;99.90
36752;DHT22;22718;49.494;7.036;2023-05-20T04:12:27;11.60;99.90
36752;DHT22;22718;49.494;7.036;2023-05-20T04:14:56;11.60;99.90
36752;DHT22;22718;49.494;7.036;2023-05-20T04:17:22;11.50;99.90
36752;DHT22;22718;49.494;7.036;2023-05-20T04:19:48;11.50;99.90
36752;DHT22;22718;49.494;7.036;2023-05-20T04:22:13;11.50;99.90
36752;DHT22;22718;49.494;7.036;2023-05-20T04:24:42;11.50;99.90
36752;DHT22;22718;49.494;7.036;2023-05-20T04:27:10;11.60;99.90
36752;DHT22;22718;49.494;7.036;2023-05-20T04:29:38;11.50;99.90
36752;DHT22;22718;49.494;7.036;2023-05-20T04:32:06;11.60;99.90
36752;DHT22;22718;49.494;7.036;2023-05-20T04:34:35;11.70;99.90
36752;DHT22;22718;49.494;7.036;2023-05-20T04:37:01;11.70;99.90
36752;DHT22;22718;49.494;7.036;2023-05-20T04:39:27;11.70;99.90
36752;DHT22;22718;49.494;7.036;2023-05-20T04:41:52;11.80;99.90
36752;DHT22;22718;49.494;7.036;2023-05-20T04:44:19;11.90;99.90
36752;DHT22;22718;49.494;7.036;2023-05-20T04:46:45;11.90;99.90
36752;DHT22;22718;49.494;7.036;2023-05-20T04:49:11;12.10;99.90
36752;DHT22;22718;49.494;7.036;2023-05-20T04:51:36;12.20;99.90
36752;DHT22;22718;49.494;7.036;2023-05-20T04:58:53;12.80;99.90
36752;DHT22;22718;49.494;7.036;2023-05-20T05:01:20;12.90;99.90
36752;DHT22;22718;49.494;7.036;2023-05-20T05:03:46;13.10;99.90
36752;DHT22;22718;49.494;7.036;2023-05-20T05:06:11;13.10;99.90
36752;DHT22;22718;49.494;7.036;2023-05-20T05:08:37;13.20;99.90
36752;DHT22;22718;49.494;7.036;2023-05-20T05:11:04;13.40;99.90
36752;DHT22;22718;49.494;7.036;2023-05-20T05:13:29;13.70;99.90
36752;DHT22;22718;49.494;7.036;2023-05-20T05:15:58;13.70;99.90
36752;DHT22;22718;49.494;7.036;2023-05-20T05:18:24;14.00;99.90
36752;DHT22;22718;49.494;7.036;2023-05-20T05:20:49;13.90;99.90
36752;DHT22;22718;49.494;7.036;2023-05-20T05:23:22;14.00;99.90
36752;DHT22;22718;49.494;7.036;2023-05-20T05:25:50;14.20;99.90
36752;DHT22;22718;49.494;7.036;2023-05-20T05:28:16;14.40;99.90
36752;DHT22;22718;49.494;7.036;2023-05-20T05:30:41;14.50;99.90
36752;DHT22;22718;49.494;7.036;2023-05-20T05:33:07;14.60;99.90
36752;DHT22;22718;49.494;7.036;2023-05-20T05:35:32;14.30;99.90
36752;DHT22;22718;49.494;7.036;2023-05-20T05:37:58;14.20;99.90
36752;DHT22;22718;49.494;7.036;2023-05-20T05:40:23;14.20;99.90
36752;DHT22;22718;49.494;7.036;2023-05-20T05:42:49;14.00;99.90
36752;DHT22;22718;49.494;7.036;2023-05-20T05:45:15;13.90;99.90
36752;DHT22;22718;49.494;7.036;2023-05-20T05:47:41;14.00;99.90
36752;DHT22;22718;49.494;7.036;2023-05-20T05:50:07;14.10;99.90
36752;DHT22;22718;49.494;7.036;2023-05-20T05:52:32;14.10;99.90
36752;DHT22;22718;49.494;7.036;2023-05-20T05:54:58;14.10;99.90
36752;DHT22;22718;49.494;7.036;2023-05-20T05:57:24;14.10;99.90
36752;DHT22;22718;49.494;7.036;2023-05-20T05:59:49;14.10;99.90
36752;DHT22;22718;49.494;7.036;2023-05-20T06:02:15;14.10;99.90
36752;DHT22;22718;49.494;7.036;2023-05-20T06:04:40;14.00;99.90
36752;DHT22;22718;49.494;7.036;2023-05-20T06:07:06;14.10;99.90
36752;DHT22;22718;49.494;7.036;2023-05-20T06:09:34;14.10;99.90
36752;DHT22;22718;49.494;7.036;2023-05-20T06:12:00;14.60;99.90
36752;DHT22;22718;49.494;7.036;2023-05-20T06:14:26;14.20;99.90
36752;DHT22;22718;49.494;7.036;2023-05-20T06:16:52;14.50;99.90
36752;DHT22;22718;49.494;7.036;2023-05-20T06:19:17;14.80;99.90
36752;DHT22;22718;49.494;7.036;2023-05-20T06:21:43;15.00;99.90
36752;DHT22;22718;49.494;7.036;2023-05-20T06:24:08;15.20;99.90
36752;DHT22;22718;49.494;7.036;2023-05-20T06:26:34;15.60;99.90
36752;DHT22;22718;49.494;7.036;2023-05-20T06:29:00;15.90;99.90
36752;DHT22;22718;49.494;7.036;2023-05-20T06:31:26;16.00;99.90
36752;DHT22;22718;49.494;7.036;2023-05-20T06:33:52;16.40;99.90
36752;DHT22;22718;49.494;7.036;2023-05-20T06:36:18;16.50;99.90
36752;DHT22;22718;49.494;7.036;2023-05-20T06:38:43;16.20;99.90
36752;DHT22;22718;49.494;7.036;2023-05-20T06:41:09;16.00;99.90
36752;DHT22;22718;49.494;7.036;2023-05-20T06:43:35;16.10;99.90
36752;DHT22;22718;49.494;7.036;2023-05-20T06:46:00;16.10;99.90
36752;DHT22;22718;49.494;7.036;2023-05-20T06:48:26;16.30;99.90
36752;DHT22;22718;49.494;7.036;2023-05-20T06:50:51;16.40;99.90
36752;DHT22;22718;49.494;7.036;2023-05-20T06:53:17;16.50;99.90
36752;DHT22;22718;49.494;7.036;2023-05-20T06:55:42;16.70;99.90
36752;DHT22;22718;49.494;7.036;2023-05-20T06:58:08;16.90;99.90
36752;DHT22;22718;49.494;7.036;2023-05-20T07:00:33;17.10;99.90
36752;DHT22;22718;49.494;7.036;2023-05-20T07:02:59;17.30;99.90
36752;DHT22;22718;49.494;7.036;2023-05-20T07:05:24;17.20;99.90
36752;DHT22;22718;49.494;7.036;2023-05-20T07:07:51;17.20;99.90
36752;DHT22;22718;49.494;7.036;2023-05-20T07:10:17;17.30;99.90
36752;DHT22;22718;49.494;7.036;2023-05-20T07:12:43;17.50;99.90
36752;DHT22;22718;49.494;7.036;2023-05-20T07:15:08;17.80;99.90
36752;DHT22;22718;49.494;7.036;2023-05-20T07:17:34;18.00;99.90
36752;DHT22;22718;49.494;7.036;2023-05-20T07:19:59;18.00;99.90
36752;DHT22;22718;49.494;7.036;2023-05-20T07:22:28;18.20;99.90
36752;DHT22;22718;49.494;7.036;2023-05-20T07:24:53;18.30;99.90
36752;DHT22;22718;49.494;7.036;2023-05-20T07:27:19;18.30;99.90
36752;DHT22;22718;49.494;7.036;2023-05-20T07:29:45;18.20;99.90
36752;DHT22;22718;49.494;7.036;2023-05-20T07:34:36;18.20;99.90
36752;DHT22;22718;49.494;7.036;2023-05-20T07:37:02;18.30;99.90
36752;DHT22;22718;49.494;7.036;2023-05-20T07:39:28;18.40;99.90
36752;DHT22;22718;49.494;7.036;2023-05-20T07:41:53;18.30;99.90
36752;DHT22;22718;49.494;7.036;2023-05-20T07:44:20;18.20;99.90
36752;DHT22;22718;49.494;7.036;2023-05-20T07:46:53;17.80;99.90
36752;DHT22;22718;49.494;7.036;2023-05-20T07:49:19;18.90;99.90
36752;DHT22;22718;49.494;7.036;2023-05-20T07:51:45;18.50;99.90
36752;DHT22;22718;49.494;7.036;2023-05-20T07:54:14;18.00;99.90
36752;DHT22;22718;49.494;7.036;2023-05-20T07:56:40;17.50;99.90
36752;DHT22;22718;49.494;7.036;2023-05-20T07:59:05;17.60;99.90
36752;DHT22;22718;49.494;7.036;2023-05-20T08:01:31;17.50;99.90
36752;DHT22;22718;49.494;7.036;2023-05-20T08:03:56;17.50;99.90
36752;DHT22;22718;49.494;7.036;2023-05-20T08:06:24;17.20;99.90
36752;DHT22;22718;49.494;7.036;2023-05-20T08:08:50;17.20;99.90
36752;DHT22;22718;49.494;7.036;2023-05-20T08:11:16;17.30;99.90
36752;DHT22;22718;49.494;7.036;2023-05-20T08:13:42;17.40;99.90
36752;DHT22;22718;49.494;7.036;2023-05-20T08:16:07;17.70;99.90
36752;DHT22;22718;49.494;7.036;2023-05-20T08:18:33;17.40;99.90
36752;DHT22;22718;49.494;7.036;2023-05-20T08:21:01;17.70;99.90
36752;DHT22;22718;49.494;7.036;2023-05-20T08:23:27;18.40;99.90
36752;DHT22;22718;49.494;7.036;2023-05-20T08:25:53;18.50;99.90
36752;DHT22;22718;49.494;7.036;2023-05-20T08:28:18;18.50;99.90
36752;DHT22;22718;49.494;7.036;2023-05-20T08:30:44;18.00;99.90
36752;DHT22;22718;49.494;7.036;2023-05-20T08:33:09;18.10;99.90
36752;DHT22;22718;49.494;7.036;2023-05-20T08:35:36;18.20;99.90
36752;DHT22;22718;49.494;7.036;2023-05-20T08:38:04;18.40;99.90
36752;DHT22;22718;49.494;7.036;2023-05-20T08:40:33;18.30;99.90
36752;DHT22;22718;49.494;7.036;2023-05-20T08:42:58;18.40;99.90
36752;DHT22;22718;49.494;7.036;2023-05-20T08:45:26;18.40;99.90
36752;DHT22;22718;49.494;7.036;2023-05-20T08:47:53;18.30;99.90
36752;DHT22;22718;49.494;7.036;2023-05-20T08:50:18;18.30;99.90
36752;DHT22;22718;49.494;7.036;2023-05-20T08:52:45;18.30;99.90
36752;DHT22;22718;49.494;7.036;2023-05-20T08:55:16;18.10;99.90
36752;DHT22;22718;49.494;7.036;2023-05-20T08:57:50;18.20;99.90
36752;DHT22;22718;49.494;7.036;2023-05-20T09:00:19;18.00;99.90
36752;DHT22;22718;49.494;7.036;2023-05-20T09:02:47;18.20;99.90
36752;DHT22;22718;49.494;7.036;2023-05-20T09:05:23;18.50;99.90
36752;DHT22;22718;49.494;7.036;2023-05-20T09:08:06;19.00;99.90
36752;DHT22;22718;49.494;7.036;2023-05-20T09:10:32;19.20;99.90
36752;DHT22;22718;49.494;7.036;2023-05-20T09:13:08;19.60;99.90
36752;DHT22;22718;49.494;7.036;2023-05-20T09:15:39;19.60;99.90
36752;DHT22;22718;49.494;7.036;2023-05-20T09:18:06;19.90;99.90
36752;DHT22;22718;49.494;7.036;2023-05-20T09:20:36;19.30;99.90
36752;DHT22;22718;49.494;7.036;2023-05-20T09:23:03;19.10;99.90
36752;DHT22;22718;49.494;7.036;2023-05-20T09:25:29;19.00;99.90
36752;DHT22;22718;49.494;7.036;2023-05-20T09:28:01;18.90;99.90
36752;DHT22;22718;49.494;7.036;2023-05-20T09:30:27;18.80;99.90
36752;DHT22;22718;49.494;7.036;2023-05-20T09:32:55;19.00;99.90
36752;DHT22;22718;49.494;7.036;2023-05-20T09:35:21;18.90;99.90
36752;DHT22;22718;49.494;7.036;2023-05-20T09:37:47;19.00;99.90
36752;DHT22;22718;49.494;7.036;2023-05-20T09:40:20;18.90;99.90
36752;DHT22;22718;49.494;7.036;2023-05-20T09:42:49;19.20;99.90
36752;DHT22;22718;49.494;7.036;2023-05-20T09:45:16;19.60;99.90
36752;DHT22;22718;49.494;7.036;2023-05-20T09:47:42;20.20;99.90
36752;DHT22;22718;49.494;7.036;2023-05-20T09:50:09;20.50;99.90
36752;DHT22;22718;49.494;7.036;2023-05-20T09:52:36;20.50;99.90
36752;DHT22;22718;49.494;7.036;2023-05-20T09:55:02;20.70;99.90
36752;DHT22;22718;49.494;7.036;2023-05-20T09:57:34;20.00;99.90
36752;DHT22;22718;49.494;7.036;2023-05-20T10:00:00;20.00;99.90
36752;DHT22;22718;49.494;7.036;2023-05-20T10:02:26;19.40;99.90
36752;DHT22;22718;49.494;7.036;2023-05-20T10:04:51;19.50;99.90
36752;DHT22;22718;49.494;7.036;2023-05-20T10:14:48;19.80;99.90
36752;DHT22;22718;49.494;7.036;2023-05-20T10:17:28;19.20;99.90
36752;DHT22;22718;49.494;7.036;2023-05-20T10:19:59;19.00;99.90
36752;DHT22;22718;49.494;7.036;2023-05-20T10:22:29;18.70;99.90
36752;DHT22;22718;49.494;7.036;2023-05-20T10:24:59;19.20;99.90
36752;DHT22;22718;49.494;7.036;2023-05-20T10:27:25;19.80;99.90
36752;DHT22;22718;49.494;7.036;2023-05-20T10:29:55;20.20;99.90
36752;DHT22;22718;49.494;7.036;2023-05-20T10:32:28;20.50;99.90
36752;DHT22;22718;49.494;7.036;2023-05-20T10:35:03;20.20;99.90
36752;DHT22;22718;49.494;7.036;2023-05-20T10:37:31;19.90;99.90
36752;DHT22;22718;49.494;7.036;2023-05-20T10:40:09;19.60;99.90
36752;DHT22;22718;49.494;7.036;2023-05-20T10:42:35;19.50;99.90
36752;DHT22;22718;49.494;7.036;2023-05-20T10:45:01;19.80;99.90
36752;DHT22;22718;49.494;7.036;2023-05-20T10:47:27;19.60;99.90
36752;DHT22;22718;49.494;7.036;2023-05-20T10:49:52;20.00;99.90
36752;DHT22;22718;49.494;7.036;2023-05-20T10:52:18;20.60;99.90
36752;DHT22;22718;49.494;7.036;2023-05-20T10:57:19;20.50;99.90
36752;DHT22;22718;49.494;7.036;2023-05-20T10:59:45;21.00;99.90
36752;DHT22;22718;49.494;7.036;2023-05-20T11:02:12;20.70;99.90
36752;DHT22;22718;49.494;7.036;2023-05-20T11:04:39;20.60;99.90
36752;DHT22;22718;49.494;7.036;2023-05-20T11:07:07;20.50;99.90
36752;DHT22;22718;49.494;7.036;2023-05-20T11:09:32;20.40;99.90
36752;DHT22;22718;49.494;7.036;2023-05-20T11:11:59;20.40;99.90
36752;DHT22;22718;49.494;7.036;2023-05-20T11:14:26;20.80;99.90
36752;DHT22;22718;49.494;7.036;2023-05-20T11:16:52;21.00;99.90
36752;DHT22;22718;49.494;7.036;2023-05-20T11:19:20;21.60;99.90
36752;DHT22;22718;49.494;7.036;2023-05-20T11:21:46;21.10;99.90
36752;DHT22;22718;49.494;7.036;2023-05-20T11:24:11;21.30;99.90
36752;DHT22;22718;49.494;7.036;2023-05-20T11:26:37;21.50;99.90
36752;DHT22;22718;49.494;7.036;2023-05-20T11:29:03;21.50;99.90
36752;DHT22;22718;49.494;7.036;2023-05-20T11:31:29;21.60;99.90
36752;DHT22;22718;49.494;7.036;2023-05-20T11:33:57;21.70;99.90
36752;DHT22;22718;49.494;7.036;2023-05-20T11:36:23;21.80;99.90
36752;DHT22;22718;49.494;7.036;2023-05-20T11:38:49;21.90;99.90
36752;DHT22;22718;49.494;7.036;2023-05-20T11:41:15;22.20;99.90
36752;DHT22;22718;49.494;7.036;2023-05-20T11:43:41;21.80;99.90
36752;DHT22;22718;49.494;7.036;2023-05-20T11:46:07;22.00;99.90
36752;DHT22;22718;49.494;7.036;2023-05-20T11:48:33;22.10;99.90
36752;DHT22;22718;49.494;7.036;2023-05-20T11:50:59;22.00;99.90
36752;DHT22;22718;49.494;7.036;2023-05-20T11:53:25;22.00;99.90
36752;DHT22;22718;49.494;7.036;2023-05-20T11:55:54;21.40;99.90
36752;DHT22;22718;49.494;7.036;2023-05-20T11:58:21;20.80;99.90
36752;DHT22;22718;49.494;7.036;2023-05-20T12:00:47;20.10;99.90
36752;DHT22;22718;49.494;7.036;2023-05-20T12:03:12;19.90;99.90
36752;DHT22;22718;49.494;7.036;2023-05-20T12:05:38;19.80;99.90
36752;DHT22;22718;49.494;7.036;2023-05-20T12:08:04;19.80;99.90
36752;DHT22;22718;49.494;7.036;2023-05-20T12:10:30;19.80;99.90
36752;DHT22;22718;49.494;7.036;2023-05-20T12:12:56;20.10;99.90
36752;DHT22;22718;49.494;7.036;2023-05-20T12:15:21;20.30;99.90
36752;DHT22;22718;49.494;7.036;2023-05-20T12:17:48;20.20;99.90
36752;DHT22;22718;49.494;7.036;2023-05-20T12:20:14;20.30;99.90
36752;DHT22;22718;49.494;7.036;2023-05-20T12:22:41;20.20;99.90
36752;DHT22;22718;49.494;7.036;2023-05-20T12:25:07;20.20;99.90
36752;DHT22;22718;49.494;7.036;2023-05-20T12:27:33;20.40;99.90
36752;DHT22;22718;49.494;7.036;2023-05-20T12:29:58;20.60;99.90
36752;DHT22;22718;49.494;7.036;2023-05-20T12:32:24;21.00;99.90
36752;DHT22;22718;49.494;7.036;2023-05-20T12:34:49;21.20;99.90
36752;DHT22;22718;49.494;7.036;2023-05-20T12:37:15;21.00;99.90
36752;DHT22;22718;49.494;7.036;2023-05-20T12:42:11;21.00;99.90
36752;DHT22;22718;49.494;7.036;2023-05-20T12:44:36;21.00;99.90
36752;DHT22;22718;49.494;7.036;2023-05-20T12:47:02;21.00;99.90
36752;DHT22;22718;49.494;7.036;2023-05-20T12:49:31;21.60;99.90
36752;DHT22;22718;49.494;7.036;2023-05-20T12:51:59;21.60;99.90
36752;DHT22;22718;49.494;7.036;2023-05-20T12:54:25;21.20;99.90
36752;DHT22;22718;49.494;7.036;2023-05-20T12:56:53;21.50;99.90
36752;DHT22;22718;49.494;7.036;2023-05-20T12:59:19;21.70;99.90
36752;DHT22;22718;49.494;7.036;2023-05-20T13:01:45;21.80;99.90
36752;DHT22;22718;49.494;7.036;2023-05-20T13:04:12;21.60;99.90
36752;DHT22;22718;49.494;7.036;2023-05-20T13:06:38;21.90;99.90
36752;DHT22;22718;49.494;7.036;2023-05-20T13:09:03;22.30;99.90
36752;DHT22;22718;49.494;7.036;2023-05-20T13:11:29;22.40;99.90
36752;DHT22;22718;49.494;7.036;2023-05-20T13:13:54;22.40;99.90
36752;DHT22;22718;49.494;7.036;2023-05-20T13:16:31;22.20;99.90
36752;DHT22;22718;49.494;7.036;2023-05-20T13:18:56;22.20;99.90
36752;DHT22;22718;49.494;7.036;2023-05-20T13:21:25;22.40;99.90
36752;DHT22;22718;49.494;7.036;2023-05-20T13:23:50;22.10;99.90
36752;DHT22;22718;49.494;7.036;2023-05-20T13:26:16;22.00;99.90
36752;DHT22;22718;49.494;7.036;2023-05-20T13:28:43;21.40;99.90
36752;DHT22;22718;49.494;7.036;2023-05-20T13:31:08;21.10;99.90
36752;DHT22;22718;49.494;7.036;2023-05-20T13:33:34;21.10;99.90
36752;DHT22;22718;49.494;7.036;2023-05-20T13:36:00;20.40;99.90
36752;DHT22;22718;49.494;7.036;2023-05-20T13:38:25;20.40;99.90
36752;DHT22;22718;49.494;7.036;2023-05-20T13:40:53;20.80;99.90
36752;DHT22;22718;49.494;7.036;2023-05-20T13:43:24;21.20;99.90
36752;DHT22;22718;49.494;7.036;2023-05-20T13:45:53;21.40;99.90
36752;DHT22;22718;49.494;7.036;2023-05-20T13:48:18;21.30;99.90
36752;DHT22;22718;49.494;7.036;2023-05-20T13:50:44;20.50;99.90
36752;DHT22;22718;49.494;7.036;2023-05-20T13:53:09;21.20;99.90
36752;DHT22;22718;49.494;7.036;2023-05-20T13:55:40;21.20;99.90
36752;DHT22;22718;49.494;7.036;2023-05-20T13:58:06;21.20;99.90
36752;DHT22;22718;49.494;7.036;2023-05-20T14:00:35;21.60;99.90
36752;DHT22;22718;49.494;7.036;2023-05-20T14:03:00;22.10;99.90
36752;DHT22;22718;49.494;7.036;2023-05-20T14:05:31;22.30;99.90
36752;DHT22;22718;49.494;7.036;2023-05-20T14:07:57;22.20;99.90
36752;DHT22;22718;49.494;7.036;2023-05-20T14:10:23;22.20;99.90
36752;DHT22;22718;49.494;7.036;2023-05-20T14:12:49;22.20;99.90
36752;DHT22;22718;49.494;7.036;2023-05-20T14:15:15;22.30;99.90
36752;DHT22;22718;49.494;7.036;2023-05-20T14:17:40;22.20;99.90
36752;DHT22;22718;49.494;7.036;2023-05-20T14:20:07;22.20;99.90
36752;DHT22;22718;49.494;7.036;2023-05-20T14:22:33;21.70;99.90
36752;DHT22;22718;49.494;7.036;2023-05-20T14:24:59;21.50;99.90
36752;DHT22;22718;49.494;7.036;2023-05-20T14:27:25;21.30;99.90
36752;DHT22;22718;49.494;7.036;2023-05-20T14:29:50;21.20;99.90
36752;DHT22;22718;49.494;7.036;2023-05-20T14:32:16;21.20;99.90
36752;DHT22;22718;49.494;7.036;2023-05-20T14:34:43;21.30;99.90
36752;DHT22;22718;49.494;7.036;2023-05-20T14:37:09;21.40;99.90
36752;DHT22;22718;49.494;7.036;2023-05-20T14:39:36;21.30;99.90
36752;DHT22;22718;49.494;7.036;2023-05-20T14:42:01;21.30;99.90
36752;DHT22;22718;49.494;7.036;2023-05-20T14:44:28;21.60;99.90
36752;DHT22;22718;49.494;7.036;2023-05-20T14:46:53;21.60;99.90
36752;DHT22;22718;49.494;7.036;2023-05-20T14:49:22;21.80;99.90
36752;DHT22;22718;49.494;7.036;2023-05-20T14:51:50;21.50;99.90
36752;DHT22;22718;49.494;7.036;2023-05-20T14:54:15;21.40;99.90
36752;DHT22;22718;49.494;7.036;2023-05-20T14:56:43;21.50;99.90
36752;DHT22;22718;49.494;7.036;2023-05-20T14:59:08;21.70;99.90
36752;DHT22;22718;49.494;7.036;2023-05-20T15:01:34;22.00;99.90
36752;DHT22;22718;49.494;7.036;2023-05-20T15:04:00;21.80;99.90
36752;DHT22;22718;49.494;7.036;2023-05-20T15:06:26;21.70;99.90
36752;DHT22;22718;49.494;7.036;2023-05-20T15:08:51;21.20;99.90
36752;DHT22;22718;49.494;7.036;2023-05-20T15:11:17;21.10;99.90
36752;DHT22;22718;49.494;7.036;2023-05-20T15:13:42;20.70;99.90
36752;DHT22;22718;49.494;7.036;2023-05-20T15:16:13;20.40;99.90
36752;DHT22;22718;49.494;7.036;2023-05-20T15:18:38;20.20;99.90
36752;DHT22;22718;49.494;7.036;2023-05-20T15:21:04;20.30;99.90
36752;DHT22;22718;49.494;7.036;2023-05-20T15:23:35;20.30;99.90
36752;DHT22;22718;49.494;7.036;2023-05-20T15:26:01;20.30;99.90
36752;DHT22;22718;49.494;7.036;2023-05-20T15:28:41;20.20;99.90
36752;DHT22;22718;49.494;7.036;2023-05-20T15:31:09;20.20;99.90
36752;DHT22;22718;49.494;7.036;2023-05-20T15:33:41;20.20;99.90
36752;DHT22;22718;49.494;7.036;2023-05-20T15:36:12;20.30;99.90
36752;DHT22;22718;49.494;7.036;2023-05-20T15:38:40;20.20;99.90
36752;DHT22;22718;49.494;7.036;2023-05-20T15:43:42;20.90;99.90
36752;DHT22;22718;49.494;7.036;2023-05-20T15:46:13;21.10;99.90
36752;DHT22;22718;49.494;7.036;2023-05-20T15:48:44;21.10;99.90